Time;durP1;ratioP1;P1;durP2;ratioP2;P2;SDS_P1;SDS_P2;PMS_P1;PMS_P2;Temp;Humidity;BMP_temperature;BMP_pressure;BME280_temperature;BME280_humidity;BME280_pressure;Samples;Min_cycle;Max_cycle;Signal;HPM_P1;HPM_P2
2021/09/03 00:01:15;;;;;;;17.20;15.50;;;14.30;99.90;;;;;;4939379;29;20447;-78
2021/09/03 00:03:44;;;;;;;14.37;12.97;;;14.20;99.90;;;;;;4921947;29;20919;-78
2021/09/03 00:06:13;;;;;;;16.40;14.10;;;14.20;99.90;;;;;;4938709;29;20455;-78
2021/09/03 00:08:41;;;;;;;16.70;14.10;;;14.20;99.90;;;;;;4922213;29;20479;-78
2021/09/03 00:11:11;;;;;;;17.33;13.20;;;14.20;99.90;;;;;;4939139;29;20475;-78
2021/09/03 00:13:39;;;;;;;15.85;14.15;;;14.10;99.90;;;;;;4938296;29;20557;-78
2021/09/03 00:16:07;;;;;;;15.20;13.60;;;14.10;99.90;;;;;;4915648;29;20453;-78
2021/09/03 00:18:36;;;;;;;15.37;13.73;;;14.10;99.90;;;;;;4921352;29;20809;-78
2021/09/03 00:21:04;;;;;;;15.43;13.20;;;14.10;99.90;;;;;;4922089;29;20458;-78
2021/09/03 00:23:32;;;;;;;17.30;14.17;;;14.10;99.90;;;;;;4922278;29;20468;-78
2021/09/03 00:26:00;;;;;;;14.33;12.80;;;14.00;99.90;;;;;;4883560;29;1120276;-78
2021/09/03 00:28:30;;;;;;;15.10;12.27;;;14.00;99.90;;;;;;4922584;29;20299;-78
2021/09/03 00:30:58;;;;;;;12.90;11.60;;;14.00;99.90;;;;;;4940021;29;20476;-78
2021/09/03 00:33:27;;;;;;;14.50;13.13;;;13.90;99.90;;;;;;4922473;29;20515;-78
2021/09/03 00:35:55;;;;;;;14.90;13.40;;;13.90;99.90;;;;;;4926171;29;20472;-78
2021/09/03 00:38:23;;;;;;;15.00;12.80;;;13.90;99.90;;;;;;4943593;29;20469;-78
2021/09/03 00:40:52;;;;;;;13.53;11.57;;;13.80;99.90;;;;;;4941256;29;20440;-78
2021/09/03 00:43:20;;;;;;;13.27;11.80;;;13.80;99.90;;;;;;4922835;29;20482;-79
2021/09/03 00:45:49;;;;;;;13.27;11.97;;;13.80;99.90;;;;;;4922065;29;20959;-78
2021/09/03 00:48:18;;;;;;;15.37;13.60;;;13.80;99.90;;;;;;4922025;29;20463;-78
2021/09/03 00:50:46;;;;;;;13.87;12.47;;;13.80;99.90;;;;;;4922704;29;20479;-78
2021/09/03 00:53:14;;;;;;;13.70;11.30;;;13.70;99.90;;;;;;4922365;29;21058;-78
2021/09/03 00:55:43;;;;;;;14.70;13.20;;;13.70;99.90;;;;;;4938524;29;20453;-78
2021/09/03 00:58:12;;;;;;;13.67;12.20;;;13.80;99.90;;;;;;4939562;29;20196;-78
2021/09/03 01:00:40;;;;;;;13.67;12.00;;;13.80;99.90;;;;;;4921868;29;20526;-79
2021/09/03 01:03:10;;;;;;;15.00;11.83;;;13.70;99.90;;;;;;4921783;29;20969;-78
2021/09/03 01:05:39;;;;;;;13.73;12.43;;;13.70;99.90;;;;;;4922065;29;21020;-78
2021/09/03 01:08:07;;;;;;;14.40;12.00;;;13.70;99.90;;;;;;4933466;29;20459;-78
2021/09/03 01:10:36;;;;;;;13.70;12.30;;;13.60;99.90;;;;;;4921432;29;20555;-78
2021/09/03 01:13:05;;;;;;;15.23;13.20;;;13.60;99.90;;;;;;4938932;29;20542;-78
2021/09/03 01:15:33;;;;;;;14.80;13.30;;;13.60;99.90;;;;;;4921908;29;20934;-78
2021/09/03 01:18:01;;;;;;;15.17;12.20;;;13.50;99.90;;;;;;4921475;29;20463;-78
2021/09/03 01:20:31;;;;;;;13.00;11.63;;;13.50;99.90;;;;;;4939062;29;20475;-78
2021/09/03 01:23:01;;;;;;;15.83;14.23;;;13.40;99.90;;;;;;4939198;29;20494;-78
2021/09/03 01:25:29;;;;;;;15.50;13.80;;;13.40;99.90;;;;;;4921435;29;20477;-78
2021/09/03 01:27:57;;;;;;;13.83;11.80;;;13.40;99.90;;;;;;4921853;29;20463;-78
2021/09/03 01:30:25;;;;;;;15.43;13.82;;;13.40;99.90;;;;;;4937634;29;20830;-78
2021/09/03 01:32:53;;;;;;;14.63;12.90;;;13.50;99.90;;;;;;4939053;29;20218;-78
2021/09/03 01:35:22;;;;;;;15.30;12.30;;;13.50;99.90;;;;;;4922304;29;20478;-78
2021/09/03 01:37:50;;;;;;;13.80;11.90;;;13.40;99.90;;;;;;4938734;29;20448;-79
2021/09/03 01:40:20;;;;;;;13.27;11.97;;;13.40;99.90;;;;;;4938861;29;20444;-79
2021/09/03 01:42:48;;;;;;;13.97;12.57;;;13.30;99.90;;;;;;4938687;29;20979;-78
2021/09/03 01:45:16;;;;;;;15.13;12.40;;;13.30;99.90;;;;;;4921364;29;20471;-78
2021/09/03 01:47:44;;;;;;;14.10;12.37;;;13.30;99.90;;;;;;4931368;29;20905;-78
2021/09/03 01:50:12;;;;;;;14.40;12.87;;;13.20;99.90;;;;;;4918364;29;20494;-78
2021/09/03 01:52:41;;;;;;;15.63;12.37;;;13.20;99.90;;;;;;4938441;29;20490;-78
2021/09/03 01:55:10;;;;;;;15.37;13.70;;;13.20;99.90;;;;;;4921461;29;20851;-78
2021/09/03 01:57:39;;;;;;;15.60;12.77;;;13.20;99.90;;;;;;4921410;29;20456;-78
2021/09/03 02:00:08;;;;;;;15.40;13.80;;;13.10;99.90;;;;;;4920665;29;20479;-78
2021/09/03 02:02:40;;;;;;;17.10;13.13;;;13.20;99.90;;;;;;4921696;29;20276;-78
2021/09/03 02:05:09;;;;;;;14.30;12.80;;;13.20;99.90;;;;;;4938484;29;20461;-78
2021/09/03 02:07:37;;;;;;;14.50;11.80;;;13.10;99.90;;;;;;4939197;29;20598;-78
2021/09/03 02:10:07;;;;;;;14.60;13.10;;;13.10;99.90;;;;;;4921146;29;20462;-78
2021/09/03 02:12:35;;;;;;;15.37;13.80;;;13.10;99.90;;;;;;4921577;29;20660;-78
2021/09/03 02:15:07;;;;;;;14.83;12.30;;;13.10;99.90;;;;;;4938704;29;20892;-78
2021/09/03 02:17:35;;;;;;;14.83;13.43;;;13.00;99.90;;;;;;4921509;29;20459;-78
2021/09/03 02:20:04;;;;;;;16.60;13.90;;;13.00;99.90;;;;;;4922078;29;20448;-78
2021/09/03 02:22:32;;;;;;;15.17;13.70;;;13.00;99.90;;;;;;4924313;29;20836;-78
2021/09/03 02:25:01;;;;;;;15.53;13.20;;;12.90;99.90;;;;;;4941654;29;20558;-79
2021/09/03 02:27:29;;;;;;;15.57;13.97;;;12.90;99.90;;;;;;4925373;29;20490;-78
2021/09/03 02:29:58;;;;;;;15.00;13.50;;;12.90;99.90;;;;;;4942064;29;20450;-78
2021/09/03 02:32:27;;;;;;;14.70;13.40;;;12.90;99.90;;;;;;4925369;29;20475;-78
2021/09/03 02:34:56;;;;;;;17.30;15.53;;;12.90;99.90;;;;;;4942046;29;20467;-78
2021/09/03 02:37:24;;;;;;;18.45;16.30;;;12.90;99.90;;;;;;4923571;29;20665;-78
2021/09/03 02:39:52;;;;;;;16.67;13.30;;;12.90;99.90;;;;;;4924240;29;20204;-78
2021/09/03 02:42:20;;;;;;;16.25;14.55;;;12.90;99.90;;;;;;4923557;29;20457;-78
2021/09/03 02:44:48;;;;;;;17.40;14.23;;;13.00;99.90;;;;;;4924235;29;20697;-78
2021/09/03 02:47:16;;;;;;;15.23;13.73;;;12.90;99.90;;;;;;4924456;29;20462;-78
2021/09/03 02:49:46;;;;;;;16.10;14.27;;;12.90;99.90;;;;;;4924320;29;20474;-78
2021/09/03 02:52:14;;;;;;;16.97;15.37;;;12.80;99.90;;;;;;4924244;29;20476;-78
2021/09/03 02:54:42;;;;;;;16.63;14.27;;;12.80;99.90;;;;;;4924553;29;21033;-78
2021/09/03 02:57:10;;;;;;;16.33;14.60;;;12.80;99.90;;;;;;4924659;29;20456;-78
2021/09/03 03:00:00;;;;;;;16.33;14.73;;;12.70;99.90;;;;;;4925675;29;20901;-78
2021/09/03 03:02:28;;;;;;;15.47;13.87;;;12.70;99.90;;;;;;4879555;29;20485;-78
2021/09/03 03:04:57;;;;;;;15.13;13.53;;;12.70;99.90;;;;;;4864420;29;20475;-78
2021/09/03 03:07:25;;;;;;;16.70;15.00;;;12.60;99.90;;;;;;4864883;29;20455;-78
2021/09/03 03:09:54;;;;;;;14.97;13.47;;;12.60;99.90;;;;;;4864975;29;20463;-79
2021/09/03 03:12:22;;;;;;;15.07;13.53;;;12.60;99.90;;;;;;4880441;29;20472;-77
2021/09/03 03:14:50;;;;;;;14.93;13.43;;;12.60;99.90;;;;;;4871194;29;20474;-78
2021/09/03 03:17:18;;;;;;;15.70;14.10;;;12.50;99.90;;;;;;4880903;29;20460;-78
2021/09/03 03:19:46;;;;;;;15.93;14.23;;;12.50;99.90;;;;;;4877499;29;20459;-79
2021/09/03 03:22:16;;;;;;;15.03;13.40;;;12.60;99.90;;;;;;4863622;29;20201;-77
2021/09/03 03:24:45;;;;;;;17.70;14.30;;;12.50;99.90;;;;;;4864799;29;20570;-77
2021/09/03 03:27:13;;;;;;;18.50;13.60;;;12.60;99.90;;;;;;4863858;29;20872;-78
2021/09/03 03:29:41;;;;;;;15.50;13.90;;;12.50;99.90;;;;;;4879866;29;20469;-78
2021/09/03 03:32:09;;;;;;;14.93;13.40;;;12.50;99.90;;;;;;4864147;29;20479;-78
2021/09/03 03:34:37;;;;;;;15.63;14.03;;;12.50;99.90;;;;;;4864850;29;20511;-78
2021/09/03 03:37:06;;;;;;;16.43;14.80;;;12.50;99.90;;;;;;4864731;29;20463;-78
2021/09/03 03:39:35;;;;;;;17.40;14.83;;;12.40;99.90;;;;;;4863617;29;20843;-78
2021/09/03 03:42:04;;;;;;;15.40;13.80;;;12.40;99.90;;;;;;4878861;29;20459;-78
2021/09/03 03:44:32;;;;;;;14.70;13.30;;;12.40;99.90;;;;;;4863668;29;20827;-78
2021/09/03 03:47:01;;;;;;;18.10;15.03;;;12.30;99.90;;;;;;4864931;29;20472;-79
2021/09/03 03:49:29;;;;;;;14.47;12.97;;;12.30;99.90;;;;;;4874133;29;20470;-77
2021/09/03 03:51:57;;;;;;;16.08;14.38;;;12.30;99.90;;;;;;4880132;29;20944;-78
2021/09/03 03:54:25;;;;;;;17.07;13.10;;;12.30;99.90;;;;;;4879470;29;20700;-78
2021/09/03 03:56:55;;;;;;;15.10;13.50;;;12.30;99.90;;;;;;4862930;29;20463;-78
2021/09/03 03:59:23;;;;;;;18.40;13.13;;;12.30;99.90;;;;;;4879151;29;20209;-78
2021/09/03 04:01:52;;;;;;;14.60;13.10;;;12.30;99.90;;;;;;4867110;29;20476;-78
2021/09/03 04:04:21;;;;;;;16.80;15.10;;;12.20;99.90;;;;;;4883452;29;20483;-78
2021/09/03 04:06:50;;;;;;;17.43;15.67;;;12.20;99.90;;;;;;4881827;29;20503;-79
2021/09/03 04:09:18;;;;;;;17.40;15.60;;;12.20;99.90;;;;;;4882149;29;20448;-78
2021/09/03 04:11:47;;;;;;;17.63;15.77;;;12.10;99.90;;;;;;4877752;29;20951;-77
2021/09/03 04:14:18;;;;;;;17.43;15.70;;;12.10;99.90;;;;;;4882460;29;20520;-78
2021/09/03 04:16:47;;;;;;;19.50;15.23;;;12.00;99.90;;;;;;4881803;29;20462;-77
2021/09/03 04:19:15;;;;;;;14.83;13.37;;;12.00;99.90;;;;;;4882694;29;20548;-78
2021/09/03 04:21:43;;;;;;;16.60;14.53;;;12.00;99.90;;;;;;4872410;29;20455;-78
2021/09/03 04:24:11;;;;;;;16.67;14.83;;;12.00;99.90;;;;;;4863487;29;20491;-78
2021/09/03 04:26:39;;;;;;;14.30;12.73;;;12.00;99.90;;;;;;4862394;29;20461;-77
2021/09/03 04:29:07;;;;;;;16.40;14.60;;;11.90;99.90;;;;;;4861777;29;20857;-78
2021/09/03 04:31:37;;;;;;;16.70;14.90;;;11.90;99.90;;;;;;4864025;29;20237;-78
2021/09/03 04:34:05;;;;;;;15.07;13.57;;;11.90;99.90;;;;;;4881406;29;20490;-77
2021/09/03 04:36:33;;;;;;;15.30;13.70;;;11.80;99.90;;;;;;4878637;29;20510;-78
2021/09/03 04:39:02;;;;;;;15.83;12.50;;;12.00;99.90;;;;;;4882233;29;20587;-78
2021/09/03 04:41:30;;;;;;;16.10;13.07;;;11.90;99.90;;;;;;4882627;29;20548;-78
2021/09/03 04:43:58;;;;;;;14.57;13.03;;;11.90;99.90;;;;;;4880893;29;20466;-78
2021/09/03 04:46:26;;;;;;;14.43;12.83;;;11.90;99.90;;;;;;4881391;29;20496;-78
2021/09/03 04:48:56;;;;;;;13.43;11.50;;;11.80;99.90;;;;;;4876138;29;20455;-79
2021/09/03 04:51:25;;;;;;;14.57;13.17;;;11.80;99.90;;;;;;4861661;29;20462;-78
2021/09/03 04:53:53;;;;;;;13.80;11.80;;;11.80;99.90;;;;;;4877652;29;20500;-78
2021/09/03 04:56:21;;;;;;;13.77;12.23;;;11.80;99.90;;;;;;4863965;29;20495;-78
2021/09/03 04:58:49;;;;;;;13.20;11.90;;;11.80;99.90;;;;;;4877738;29;20495;-78
2021/09/03 05:01:17;;;;;;;11.73;10.53;;;11.80;99.90;;;;;;4871557;29;20590;-78
2021/09/03 05:03:47;;;;;;;14.50;11.60;;;11.80;99.90;;;;;;4866447;29;20534;-78
2021/09/03 05:06:18;;;;;;;12.40;11.10;;;11.70;99.90;;;;;;4880538;29;20468;-79
2021/09/03 05:08:46;;;;;;;12.25;11.00;;;11.70;99.90;;;;;;4881539;29;20540;-78
2021/09/03 05:11:14;;;;;;;12.53;11.23;;;11.70;99.90;;;;;;4878766;29;20205;-77
2021/09/03 05:13:42;;;;;;;13.87;11.27;;;11.70;99.90;;;;;;4867049;29;20588;-77
2021/09/03 05:16:11;;;;;;;13.40;11.37;;;11.70;99.90;;;;;;4861940;29;20964;-78
2021/09/03 05:18:39;;;;;;;13.00;11.43;;;11.70;99.90;;;;;;4863163;29;20543;-78
2021/09/03 05:21:07;;;;;;;11.27;10.07;;;11.70;99.90;;;;;;4862073;29;20555;-79
2021/09/03 05:23:37;;;;;;;13.17;11.97;;;11.70;99.90;;;;;;4877643;29;20472;-78
2021/09/03 05:26:05;;;;;;;17.50;12.07;;;11.70;99.90;;;;;;4862215;29;20469;-79
2021/09/03 05:28:34;;;;;;;13.73;12.10;;;11.70;99.90;;;;;;4878218;29;20493;-79
2021/09/03 05:31:02;;;;;;;13.07;11.87;;;11.70;99.90;;;;;;4862379;29;20455;-79
2021/09/03 05:33:30;;;;;;;18.70;13.10;;;11.70;99.90;;;;;;4877896;29;20496;-78
2021/09/03 05:35:58;;;;;;;14.43;12.80;;;11.70;99.90;;;;;;4862308;29;20542;-79
2021/09/03 05:38:29;;;;;;;14.97;13.37;;;11.70;99.90;;;;;;4862885;29;20458;-79
2021/09/03 05:40:59;;;;;;;15.10;13.60;;;11.70;99.90;;;;;;4862230;29;20481;-79
2021/09/03 05:43:27;;;;;;;14.90;13.03;;;11.70;99.90;;;;;;4862203;29;20478;-78
2021/09/03 05:45:56;;;;;;;15.30;13.70;;;11.80;99.90;;;;;;4862499;29;20466;-79
2021/09/03 05:48:24;;;;;;;16.65;14.82;;;11.80;99.90;;;;;;4877853;29;20822;-79
2021/09/03 05:50:52;;;;;;;17.80;15.70;;;11.80;99.90;;;;;;4862628;29;20707;-79
2021/09/03 05:53:20;;;;;;;18.67;15.50;;;11.90;99.90;;;;;;4864050;29;20558;-79
2021/09/03 05:55:48;;;;;;;17.87;15.70;;;11.90;99.90;;;;;;4866659;29;20482;-79
2021/09/03 05:58:18;;;;;;;17.57;15.57;;;11.90;99.90;;;;;;4881674;29;21017;-79
2021/09/03 06:00:46;;;;;;;21.53;16.50;;;12.00;99.90;;;;;;4866648;29;20509;-79
2021/09/03 06:03:15;;;;;;;18.87;16.90;;;12.00;99.90;;;;;;4868141;29;21033;-79
2021/09/03 06:05:44;;;;;;;20.33;17.33;;;12.10;99.90;;;;;;4867800;29;20454;-79
2021/09/03 06:08:12;;;;;;;24.90;21.37;;;12.10;99.90;;;;;;4867110;29;20905;-78
2021/09/03 06:10:40;;;;;;;25.30;22.60;;;12.20;99.90;;;;;;4882487;29;20565;-79
2021/09/03 06:13:09;;;;;;;27.73;20.97;;;12.30;99.90;;;;;;4868210;29;20458;-78
2021/09/03 06:15:38;;;;;;;25.10;22.40;;;12.30;99.90;;;;;;4866873;29;20455;-79
2021/09/03 06:18:06;;;;;;;26.23;20.30;;;12.40;99.90;;;;;;4868156;29;20458;-78
2021/09/03 06:20:35;;;;;;;26.53;22.23;;;12.40;99.90;;;;;;4866321;29;20457;-78
2021/09/03 06:23:03;;;;;;;28.57;23.13;;;12.50;99.90;;;;;;4866445;29;20494;-78
2021/09/03 06:25:34;;;;;;;24.47;19.90;;;12.60;99.90;;;;;;4866839;29;20562;-78
2021/09/03 06:28:02;;;;;;;25.30;20.77;;;12.70;99.90;;;;;;4868119;29;20459;-79
2021/09/03 06:30:31;;;;;;;40.85;36.70;;;12.80;99.90;;;;;;4866004;29;20467;-78
2021/09/03 06:33:00;;;;;;;39.43;35.00;;;13.00;99.90;;;;;;4882113;29;20713;-78
2021/09/03 06:35:28;;;;;;;25.60;21.27;;;13.00;99.90;;;;;;4867356;29;20459;-79
2021/09/03 06:37:57;;;;;;;25.43;19.90;;;13.10;99.90;;;;;;4867199;29;20273;-78
2021/09/03 06:40:25;;;;;;;23.73;20.93;;;13.20;99.90;;;;;;4866189;29;20502;-79
2021/09/03 06:42:53;;;;;;;23.67;18.13;;;13.30;99.90;;;;;;4866601;29;20462;-78
2021/09/03 06:45:26;;;;;;;25.97;19.27;;;13.30;99.90;;;;;;4866069;29;20495;-78
2021/09/03 06:47:54;;;;;;;31.23;19.97;;;13.40;99.90;;;;;;4866358;29;20550;-79
2021/09/03 06:50:23;;;;;;;25.90;19.27;;;13.40;99.90;;;;;;4866490;29;20819;-78
2021/09/03 06:52:52;;;;;;;19.60;17.53;;;13.50;99.90;;;;;;4866494;29;20879;-78
2021/09/03 06:55:20;;;;;;;24.37;18.73;;;13.60;99.90;;;;;;4881502;29;20483;-78
2021/09/03 06:57:48;;;;;;;22.53;17.73;;;13.70;99.90;;;;;;4867309;29;20790;-78
2021/09/03 07:00:17;;;;;;;22.40;18.20;;;13.70;99.90;;;;;;4866964;29;20541;-78
2021/09/03 07:02:47;;;;;;;23.70;19.00;;;13.80;99.90;;;;;;4866635;29;20447;-78
2021/09/03 07:05:15;;;;;;;22.03;16.63;;;13.90;99.90;;;;;;4866142;29;20463;-78
2021/09/03 07:07:46;;;;;;;27.00;17.73;;;14.00;99.90;;;;;;4865762;29;20554;-78
2021/09/03 07:10:14;;;;;;;22.55;16.70;;;14.00;99.90;;;;;;4864422;29;20832;-78
2021/09/03 07:12:43;;;;;;;21.60;17.03;;;14.20;99.90;;;;;;4867616;29;20236;-79
2021/09/03 07:15:12;;;;;;;22.63;17.30;;;14.30;99.90;;;;;;4865367;29;20548;-79
2021/09/03 07:17:40;;;;;;;21.73;16.83;;;14.40;99.90;;;;;;4865580;29;20211;-77
2021/09/03 07:20:12;;;;;;;19.23;15.50;;;14.50;99.90;;;;;;4865920;29;20495;-78
2021/09/03 07:22:40;;;;;;;20.50;15.23;;;14.60;99.90;;;;;;4881335;29;20522;-78
2021/09/03 07:25:11;;;;;;;18.70;15.47;;;14.60;99.90;;;;;;4866046;29;20454;-78
2021/09/03 07:27:39;;;;;;;22.27;15.60;;;14.70;99.90;;;;;;4882072;29;20485;-78
2021/09/03 07:30:08;;;;;;;22.10;15.53;;;14.80;99.90;;;;;;4866820;29;20447;-78
2021/09/03 07:32:37;;;;;;;17.83;13.10;;;14.90;99.90;;;;;;4865276;29;20450;-78
2021/09/03 07:35:06;;;;;;;14.87;12.43;;;15.00;99.90;;;;;;4865798;29;20499;-78
2021/09/03 07:37:36;;;;;;;16.00;13.30;;;15.00;99.90;;;;;;4867470;29;20448;-78
2021/09/03 07:40:05;;;;;;;17.50;12.90;;;15.10;99.90;;;;;;4865767;29;20460;-78
2021/09/03 07:42:36;;;;;;;15.73;12.60;;;15.20;99.90;;;;;;4866293;29;20451;-79
2021/09/03 07:45:05;;;;;;;17.03;10.70;;;15.30;99.90;;;;;;4866260;29;20511;-79
2021/09/03 07:47:36;;;;;;;14.50;10.97;;;15.40;99.90;;;;;;4867200;29;20452;-78
2021/09/03 07:50:17;;;;;;;17.27;11.73;;;15.50;99.90;;;;;;4865172;29;20450;-78
2021/09/03 07:52:45;;;;;;;15.30;11.50;;;15.60;99.90;;;;;;4866935;29;20206;-78
2021/09/03 07:55:34;;;;;;;14.15;11.63;;;15.80;99.90;;;;;;4865987;29;20449;-78
2021/09/03 07:58:05;;;;;;;12.80;11.27;;;15.90;99.90;;;;;;4867194;29;20202;-79
2021/09/03 08:00:34;;;;;;;13.50;10.17;;;16.00;99.90;;;;;;4867010;29;20913;-79
2021/09/03 08:03:04;;;;;;;14.63;11.00;;;16.10;99.90;;;;;;4867126;29;20418;-79
2021/09/03 08:05:33;;;;;;;15.50;12.00;;;16.20;99.90;;;;;;4867530;29;20507;-78
2021/09/03 08:08:02;;;;;;;12.70;11.17;;;16.20;99.90;;;;;;4881133;29;20459;-79
2021/09/03 08:10:33;;;;;;;13.80;10.63;;;16.30;99.90;;;;;;4864984;29;20437;-78
2021/09/03 08:13:01;;;;;;;15.83;11.53;;;16.40;99.90;;;;;;4866258;29;20420;-77
2021/09/03 08:15:32;;;;;;;17.23;12.27;;;16.40;99.90;;;;;;4866281;29;20483;-78
2021/09/03 08:18:00;;;;;;;11.80;10.43;;;16.50;99.90;;;;;;4880410;29;20546;-79
2021/09/03 08:20:31;;;;;;;13.53;11.23;;;16.60;99.90;;;;;;4865598;29;20488;-79
2021/09/03 08:22:59;;;;;;;15.10;11.47;;;16.70;99.90;;;;;;4865698;29;20438;-78
2021/09/03 08:25:30;;;;;;;13.20;10.30;;;16.80;99.90;;;;;;4865893;29;20447;-79
2021/09/03 08:27:58;;;;;;;14.77;10.82;;;16.80;99.90;;;;;;4879833;29;20503;-79
2021/09/03 08:30:27;;;;;;;16.80;12.10;;;16.90;99.90;;;;;;4865451;29;20691;-79
2021/09/03 08:32:57;;;;;;;17.02;13.00;;;17.00;99.90;;;;;;4864724;29;20468;-79
2021/09/03 08:35:26;;;;;;;15.60;11.80;;;17.00;99.90;;;;;;4865073;29;20280;-79
2021/09/03 08:37:54;;;;;;;15.80;11.40;;;17.00;99.90;;;;;;4865588;29;20434;-78
2021/09/03 08:40:23;;;;;;;22.80;13.37;;;17.00;99.90;;;;;;4880930;29;20516;-80
2021/09/03 08:42:51;;;;;;;14.83;11.27;;;17.10;99.90;;;;;;4862863;29;20455;-79
2021/09/03 08:45:20;;;;;;;19.30;12.70;;;17.10;99.90;;;;;;4864382;29;20475;-78
2021/09/03 08:47:48;;;;;;;16.60;11.60;;;17.10;99.90;;;;;;4863333;29;20451;-78
2021/09/03 08:50:19;;;;;;;16.40;13.33;;;17.20;99.90;;;;;;4861517;29;20471;-78
2021/09/03 08:52:49;;;;;;;15.47;12.17;;;17.20;99.90;;;;;;4862290;29;20439;-78
2021/09/03 08:55:18;;;;;;;17.77;13.03;;;17.30;99.90;;;;;;4861225;29;20558;-78
2021/09/03 08:57:46;;;;;;;19.93;13.70;;;17.30;99.90;;;;;;4862128;29;20967;-78
2021/09/03 09:00:23;;;;;;;18.97;11.80;;;17.40;99.90;;;;;;4861369;29;20503;-79
2021/09/03 09:03:04;;;;;;;17.00;11.30;;;17.40;99.90;;;;;;4877525;29;20552;-78
2021/09/03 09:05:54;;;;;;;16.35;12.13;;;17.40;99.90;;;;;;4860835;29;20508;-78
2021/09/03 09:08:25;;;;;;;19.07;12.10;;;17.50;99.90;;;;;;4861902;29;20203;-78
2021/09/03 09:10:56;;;;;;;20.80;12.10;;;17.60;99.90;;;;;;4862732;29;20506;-79
2021/09/03 09:13:25;;;;;;;18.40;11.37;;;17.60;99.90;;;;;;4862308;29;20508;-78
2021/09/03 09:16:03;;;;;;;16.53;11.00;;;17.60;99.90;;;;;;4861083;29;21022;-78
2021/09/03 09:18:47;;;;;;;18.87;11.00;;;17.60;99.90;;;;;;4876652;29;20447;-79
2021/09/03 09:21:19;;;;;;;15.37;11.63;;;17.60;99.90;;;;;;4862610;29;20481;-78
2021/09/03 09:23:50;;;;;;;12.77;11.17;;;17.60;99.90;;;;;;4860685;29;20997;-78
2021/09/03 09:26:21;;;;;;;15.50;11.20;;;17.60;99.90;;;;;;4860488;29;20461;-79
2021/09/03 09:28:51;;;;;;;14.20;11.10;;;17.60;99.90;;;;;;4861609;29;20466;-79
2021/09/03 09:31:36;;;;;;;14.20;10.60;;;17.60;99.90;;;;;;4868884;29;20435;-79
2021/09/03 09:34:16;;;;;;;14.03;10.30;;;17.70;99.90;;;;;;4882583;29;20481;-78
2021/09/03 09:36:47;;;;;;;15.00;11.83;;;17.70;99.90;;;;;;4868992;29;20495;-79
2021/09/03 09:39:16;;;;;;;14.48;10.98;;;17.70;99.90;;;;;;4883636;29;20506;-79
2021/09/03 09:41:45;;;;;;;15.07;9.93;;;17.80;99.90;;;;;;4866854;29;20210;-79
2021/09/03 09:44:13;;;;;;;12.80;11.03;;;17.80;99.90;;;;;;4882852;29;20475;-79
2021/09/03 09:46:42;;;;;;;16.23;10.57;;;17.90;99.90;;;;;;4866242;29;20490;-79
2021/09/03 09:49:14;;;;;;;14.13;10.80;;;18.00;99.90;;;;;;4869218;29;20285;-78
2021/09/03 09:51:51;;;;;;;13.30;9.80;;;18.00;99.90;;;;;;4884051;29;20479;-79
2021/09/03 09:54:22;;;;;;;15.73;12.53;;;18.00;99.90;;;;;;4869907;29;20827;-79
2021/09/03 09:56:52;;;;;;;12.90;10.13;;;18.10;99.90;;;;;;4869278;29;20887;-79
2021/09/03 09:59:22;;;;;;;13.00;10.10;;;18.10;99.90;;;;;;4867934;29;20494;-79
2021/09/03 10:01:54;;;;;;;18.40;11.53;;;18.10;99.90;;;;;;4869325;29;20510;-79
2021/09/03 10:04:24;;;;;;;10.83;9.33;;;18.10;99.90;;;;;;4868132;29;20514;-78
2021/09/03 10:06:57;;;;;;;14.80;11.33;;;18.10;99.90;;;;;;4867585;29;20444;-79
2021/09/03 10:09:27;;;;;;;13.70;10.53;;;18.10;99.90;;;;;;4868225;29;20455;-79
2021/09/03 10:11:56;;;;;;;15.07;11.10;;;18.20;99.90;;;;;;4882207;29;20470;-79
2021/09/03 10:14:27;;;;;;;14.00;11.07;;;18.10;99.90;;;;;;4867601;29;20953;-79
2021/09/03 10:16:57;;;;;;;14.67;12.20;;;18.20;99.90;;;;;;4868113;29;20755;-79
2021/09/03 10:19:27;;;;;;;15.20;12.73;;;18.20;99.90;;;;;;4883803;29;20548;-79
2021/09/03 10:22:03;;;;;;;15.47;13.17;;;18.30;99.90;;;;;;4868813;29;20855;-80
2021/09/03 10:24:32;;;;;;;15.77;14.17;;;18.30;99.90;;;;;;4867942;29;20518;-79
2021/09/03 10:27:00;;;;;;;15.27;12.87;;;18.30;99.90;;;;;;4867573;29;20460;-79
2021/09/03 10:29:34;;;;;;;16.33;12.47;;;18.40;99.90;;;;;;4882816;29;20514;-79
2021/09/03 10:32:27;;;;;;;12.90;11.13;;;18.40;99.90;;;;;;4882582;29;20523;-79
2021/09/03 10:35:04;;;;;;;13.83;11.13;;;18.50;99.90;;;;;;4866988;29;20504;-79
2021/09/03 10:37:38;;;;;;;12.10;10.90;;;18.50;99.90;;;;;;4883121;29;20471;-79
2021/09/03 10:40:10;;;;;;;13.17;11.53;;;18.60;99.90;;;;;;4866858;29;20455;-79
2021/09/03 10:42:48;;;;;;;11.93;10.70;;;18.60;99.90;;;;;;4883568;29;20964;-79
2021/09/03 10:45:24;;;;;;;14.20;10.13;;;18.60;99.90;;;;;;4867030;29;20535;-79
2021/09/03 10:48:08;;;;;;;11.85;10.63;;;18.70;99.90;;;;;;4866422;29;20977;-79
2021/09/03 10:50:38;;;;;;;14.10;10.90;;;18.70;99.90;;;;;;4868618;29;20218;-79
2021/09/03 10:53:20;;;;;;;11.17;9.87;;;18.80;99.90;;;;;;4869815;29;20447;-79
2021/09/03 10:56:08;;;;;;;13.95;10.20;;;18.90;99.90;;;;;;4864890;29;20470;-79
2021/09/03 10:58:42;;;;;;;15.33;10.77;;;18.90;99.90;;;;;;4882607;29;20202;-79
2021/09/03 11:01:33;;;;;;;16.53;11.07;;;19.00;99.90;;;;;;4866573;29;20477;-79
2021/09/03 11:04:15;;;;;;;13.07;11.27;;;19.00;99.90;;;;;;4867463;29;20470;-79
2021/09/03 11:06:50;;;;;;;12.97;11.60;;;19.00;99.90;;;;;;4882937;29;20512;-79
2021/09/03 11:09:23;;;;;;;13.87;11.37;;;19.10;99.90;;;;;;4867897;29;20462;-79
2021/09/03 11:11:53;;;;;;;14.70;11.53;;;19.10;99.90;;;;;;4868177;29;20456;-79
2021/09/03 11:14:23;;;;;;;14.63;12.07;;;19.10;99.90;;;;;;4869409;29;20503;-79
2021/09/03 11:16:54;;;;;;;15.83;11.90;;;19.10;99.90;;;;;;4869421;29;20889;-79
2021/09/03 11:19:24;;;;;;;13.47;11.60;;;19.20;99.90;;;;;;4883587;29;20455;-79
2021/09/03 11:21:55;;;;;;;13.57;12.18;;;19.30;99.90;;;;;;4869432;29;20463;-80
2021/09/03 11:24:27;;;;;;;15.00;12.70;;;19.40;99.90;;;;;;4869327;29;20226;-79
2021/09/03 11:26:56;;;;;;;14.50;12.60;;;19.40;99.90;;;;;;4869609;29;20479;-80
2021/09/03 11:29:28;;;;;;;15.63;12.20;;;19.40;99.90;;;;;;4865878;29;20464;-79
2021/09/03 11:32:09;;;;;;;14.57;13.07;;;19.50;99.90;;;;;;4867359;29;20199;-79
2021/09/03 11:34:43;;;;;;;15.57;12.93;;;19.60;99.90;;;;;;4869482;29;20483;-79
2021/09/03 11:37:17;;;;;;;16.03;13.43;;;19.50;99.90;;;;;;4869059;29;20479;-79
2021/09/03 11:39:51;;;;;;;14.87;13.00;;;19.50;99.90;;;;;;4869992;29;20483;-79
2021/09/03 11:48:20;;;;;;;15.33;13.50;;;19.60;99.90;;;;;;4955430;29;20529;-77
2021/09/03 11:50:49;;;;;;;15.97;12.70;;;19.70;99.90;;;;;;4940349;29;20442;-76
2021/09/03 11:53:25;;;;;;;15.20;12.47;;;19.70;99.90;;;;;;4952654;28;20463;-76
2021/09/03 11:55:55;;;;;;;15.52;12.40;;;19.70;99.90;;;;;;4936126;29;20480;-76
2021/09/03 11:58:25;;;;;;;14.23;12.63;;;19.80;99.90;;;;;;4937401;29;20251;-77
2021/09/03 12:00:55;;;;;;;17.45;12.60;;;19.90;99.90;;;;;;4937662;29;20540;-77
2021/09/03 12:03:31;;;;;;;17.03;12.87;;;19.90;99.90;;;;;;4920005;29;20220;-77
2021/09/03 12:06:02;;;;;;;15.70;13.07;;;19.90;99.90;;;;;;4920062;29;20451;-77
2021/09/03 12:08:35;;;;;;;13.27;11.90;;;19.90;99.90;;;;;;4920264;29;20802;-77
2021/09/03 12:11:06;;;;;;;12.57;11.10;;;19.90;99.90;;;;;;4937291;29;20916;-77
2021/09/03 12:13:36;;;;;;;13.47;12.03;;;20.00;99.90;;;;;;4920709;29;20522;-77
2021/09/03 12:16:06;;;;;;;16.50;12.77;;;20.00;99.90;;;;;;4937914;29;20956;-77
2021/09/03 12:18:36;;;;;;;12.27;10.23;;;20.00;99.90;;;;;;4937280;29;20492;-77
2021/09/03 12:21:07;;;;;;;14.23;9.90;;;20.10;99.90;;;;;;4919991;29;20905;-77
2021/09/03 12:23:38;;;;;;;15.80;10.77;;;20.10;99.90;;;;;;4920255;29;20511;-77
2021/09/03 12:26:11;;;;;;;16.30;11.20;;;20.20;99.90;;;;;;4922138;29;20483;-76
2021/09/03 12:28:40;;;;;;;15.10;11.57;;;20.20;99.90;;;;;;4922520;29;20471;-77
2021/09/03 12:31:10;;;;;;;12.33;10.37;;;20.30;99.90;;;;;;4920274;29;20454;-76
2021/09/03 12:33:48;;;;;;;13.95;11.90;;;20.40;99.90;;;;;;4919516;29;20464;-77
2021/09/03 12:36:21;;;;;;;13.27;11.93;;;20.40;99.90;;;;;;4920352;29;20294;-77
2021/09/03 12:38:53;;;;;;;16.40;12.67;;;20.40;99.90;;;;;;4919789;29;20554;-77
2021/09/03 12:41:28;;;;;;;12.80;11.50;;;20.50;99.90;;;;;;4919607;29;20450;-77
2021/09/03 12:43:59;;;;;;;16.73;11.80;;;20.50;99.90;;;;;;4936708;29;20470;-77
2021/09/03 12:46:33;;;;;;;12.53;11.23;;;20.50;99.90;;;;;;4939019;29;20459;-77
2021/09/03 12:49:05;;;;;;;13.70;11.77;;;20.50;99.90;;;;;;4921174;29;20479;-77